EJU93F LFBD-LEBL
Flight info
| Callsign | EJU93F |
|---|---|
| Flight time | N/A |
| Altitude | 31000 |
| Route | OBLOC DCT SECHE DCT AGN DCT TOU DCT LOMRA DCT ROCAN DCT PUMAL |
| Aircraft | A320/M-SDE3FGHIRWY/LB1 |
Departure
| Time | 2026-05-06 19:25 |
|---|---|
| Airport | Bordeaux–Mérignac Airport (LFBD) |
Arrival
| Time | N/A |
|---|---|
| Airport | Josep Tarradellas Barcelona-El Prat Airport (LEBL) |
| Time | Latitude | Longitude | Altitude | Speed | Heading |
|---|---|---|---|---|---|
| 2026-05-06 19:08 | 44.83186 | -0.70355 | 165 ft | 0 kts | 135° |
| 2026-05-06 19:17 | 44.83196 | -0.70369 | 163 ft | 4 kts | 137° |
| 2026-05-06 19:17 | 44.83216 | -0.70394 | 163 ft | 4 kts | 145° |
| 2026-05-06 19:18 | 44.83239 | -0.70412 | 163 ft | 4 kts | 172° |
| 2026-05-06 19:18 | 44.83257 | -0.70409 | 163 ft | 0 kts | 225° |
| 2026-05-06 19:20 | 44.83235 | -0.70439 | 163 ft | 11 kts | 225° |
| 2026-05-06 19:21 | 44.83198 | -0.70531 | 163 ft | 11 kts | 281° |
| 2026-05-06 19:21 | 44.83182 | -0.70632 | 163 ft | 13 kts | 227° |
| 2026-05-06 19:21 | 44.83090 | -0.70764 | 164 ft | 22 kts | 225° |
| 2026-05-06 19:21 | 44.82991 | -0.70904 | 164 ft | 13 kts | 225° |
| 2026-05-06 19:22 | 44.82932 | -0.70891 | 165 ft | 11 kts | 108° |
| 2026-05-06 19:22 | 44.82896 | -0.70729 | 166 ft | 22 kts | 106° |
| 2026-05-06 19:22 | 44.82859 | -0.70551 | 167 ft | 16 kts | 105° |
| 2026-05-06 19:22 | 44.82830 | -0.70407 | 167 ft | 14 kts | 106° |
| 2026-05-06 19:23 | 44.82796 | -0.70249 | 168 ft | 21 kts | 107° |
| 2026-05-06 19:23 | 44.82755 | -0.70062 | 168 ft | 19 kts | 105° |
| 2026-05-06 19:23 | 44.82717 | -0.69952 | 169 ft | 11 kts | 147° |
| 2026-05-06 19:23 | 44.82648 | -0.69959 | 169 ft | 9 kts | 196° |
| 2026-05-06 19:24 | 44.82575 | -0.69989 | 170 ft | 13 kts | 198° |
| 2026-05-06 19:24 | 44.82561 | -0.70087 | 170 ft | 13 kts | 284° |
| 2026-05-06 19:24 | 44.82622 | -0.70372 | 170 ft | 61 kts | 287° |
| 2026-05-06 19:24 | 44.82809 | -0.71268 | 163 ft | 127 kts | 287° |
| 2026-05-06 19:25 | 44.83096 | -0.72651 | 393 ft | 155 kts | 286° |
| 2026-05-06 19:25 | 44.83223 | -0.74141 | 1093 ft | 157 kts | 255° |
| 2026-05-06 19:25 | 44.82586 | -0.75396 | 1745 ft | 167 kts | 217° |
| 2026-05-06 19:25 | 44.81399 | -0.75775 | 2056 ft | 192 kts | 175° |
| 2026-05-06 19:26 | 44.79997 | -0.75455 | 2320 ft | 216 kts | 171° |
| 2026-05-06 19:26 | 44.78453 | -0.75041 | 2655 ft | 235 kts | 170° |
| 2026-05-06 19:26 | 44.76780 | -0.74581 | 3119 ft | 251 kts | 170° |
| 2026-05-06 19:26 | 44.74997 | -0.74095 | 3595 ft | 271 kts | 170° |
| 2026-05-06 19:27 | 44.73125 | -0.73546 | 4365 ft | 278 kts | 164° |
| 2026-05-06 19:27 | 44.71397 | -0.72283 | 5181 ft | 284 kts | 140° |
| 2026-05-06 19:27 | 44.70124 | -0.70164 | 6002 ft | 286 kts | 116° |
| 2026-05-06 19:27 | 44.69518 | -0.67514 | 6809 ft | 286 kts | 93° |
| 2026-05-06 19:28 | 44.69412 | -0.64716 | 7610 ft | 288 kts | 90° |
| 2026-05-06 19:28 | 44.69324 | -0.61892 | 8421 ft | 291 kts | 90° |
| 2026-05-06 19:28 | 44.69234 | -0.59040 | 9233 ft | 294 kts | 91° |
| 2026-05-06 19:28 | 44.69141 | -0.56157 | 10023 ft | 297 kts | 91° |
| 2026-05-06 19:29 | 44.69043 | -0.53234 | 10433 ft | 314 kts | 91° |
| 2026-05-06 19:29 | 44.68695 | -0.50099 | 10627 ft | 338 kts | 109° |
| 2026-05-06 19:29 | 44.67463 | -0.47241 | 11081 ft | 349 kts | 134° |
| 2026-05-06 19:29 | 44.65619 | -0.44987 | 11738 ft | 353 kts | 141° |
| 2026-05-06 19:30 | 44.63700 | -0.42801 | 12456 ft | 357 kts | 142° |
| 2026-05-06 19:30 | 44.61756 | -0.40616 | 13157 ft | 360 kts | 142° |
| 2026-05-06 19:30 | 44.59786 | -0.38415 | 13850 ft | 363 kts | 142° |
| 2026-05-06 19:30 | 44.57798 | -0.36196 | 14454 ft | 367 kts | 142° |
| 2026-05-06 19:31 | 44.55797 | -0.33959 | 15049 ft | 370 kts | 142° |
| 2026-05-06 19:31 | 44.53775 | -0.31687 | 15628 ft | 374 kts | 141° |
| 2026-05-06 19:31 | 44.49676 | -0.27085 | 16792 ft | 381 kts | 141° |
| 2026-05-06 19:32 | 44.47595 | -0.24756 | 17382 ft | 384 kts | 141° |
| 2026-05-06 19:32 | 44.45498 | -0.22409 | 17958 ft | 388 kts | 141° |
| 2026-05-06 19:32 | 44.43383 | -0.20042 | 18488 ft | 391 kts | 141° |
| 2026-05-06 19:32 | 44.41246 | -0.17652 | 18974 ft | 395 kts | 141° |
| 2026-05-06 19:33 | 44.39085 | -0.15242 | 19465 ft | 399 kts | 141° |
| 2026-05-06 19:33 | 44.36905 | -0.12813 | 19960 ft | 402 kts | 141° |
| 2026-05-06 19:33 | 44.34704 | -0.10361 | 20445 ft | 406 kts | 141° |
| 2026-05-06 19:33 | 44.32487 | -0.07893 | 20940 ft | 410 kts | 141° |
| 2026-05-06 19:34 | 44.30246 | -0.05401 | 21428 ft | 413 kts | 141° |
| 2026-05-06 19:34 | 44.27987 | -0.02897 | 21909 ft | 417 kts | 141° |
| 2026-05-06 19:34 | 44.25708 | -0.00373 | 22383 ft | 420 kts | 141° |
| 2026-05-06 19:34 | 44.23405 | 0.02182 | 22839 ft | 424 kts | 141° |
| 2026-05-06 19:35 | 44.21089 | 0.04747 | 23296 ft | 427 kts | 141° |
| 2026-05-06 19:35 | 44.18752 | 0.07332 | 23705 ft | 430 kts | 141° |
| 2026-05-06 19:35 | 44.17196 | 0.09049 | 23952 ft | 432 kts | 141° |
| 2026-05-06 19:35 | 44.14031 | 0.12538 | 24460 ft | 435 kts | 141° |
| 2026-05-06 19:36 | 44.12453 | 0.14276 | 24703 ft | 437 kts | 141° |
| 2026-05-06 19:36 | 44.10066 | 0.16908 | 25071 ft | 439 kts | 141° |
| 2026-05-06 19:36 | 44.07664 | 0.19557 | 25426 ft | 441 kts | 141° |
| 2026-05-06 19:36 | 44.05255 | 0.22212 | 25774 ft | 444 kts | 142° |
| 2026-05-06 19:37 | 44.02827 | 0.24881 | 26112 ft | 446 kts | 142° |
| 2026-05-06 19:37 | 44.00385 | 0.27557 | 26458 ft | 448 kts | 142° |
| 2026-05-06 19:37 | 43.97930 | 0.30241 | 26786 ft | 450 kts | 142° |
| 2026-05-06 19:37 | 43.95459 | 0.32942 | 27105 ft | 453 kts | 142° |
| 2026-05-06 19:38 | 43.92981 | 0.35650 | 27417 ft | 455 kts | 142° |
| 2026-05-06 19:38 | 43.90486 | 0.38379 | 27735 ft | 458 kts | 142° |
| 2026-05-06 19:38 | 43.87984 | 0.41116 | 28048 ft | 460 kts | 142° |
| 2026-05-06 19:38 | 43.85463 | 0.43866 | 28348 ft | 462 kts | 142° |
| 2026-05-06 19:39 | 43.82931 | 0.46623 | 28656 ft | 464 kts | 142° |
| 2026-05-06 19:39 | 43.80388 | 0.49389 | 28953 ft | 466 kts | 142° |
| 2026-05-06 19:39 | 43.77836 | 0.52158 | 29238 ft | 467 kts | 142° |
| 2026-05-06 19:39 | 43.75304 | 0.54901 | 29511 ft | 469 kts | 142° |
| 2026-05-06 19:40 | 43.72730 | 0.57685 | 29777 ft | 471 kts | 143° |
| 2026-05-06 19:40 | 43.70144 | 0.60483 | 30030 ft | 473 kts | 143° |
| 2026-05-06 19:40 | 43.67551 | 0.63287 | 30250 ft | 475 kts | 143° |
| 2026-05-06 19:40 | 43.64946 | 0.66103 | 30461 ft | 476 kts | 143° |
| 2026-05-06 19:41 | 43.62334 | 0.68921 | 30672 ft | 477 kts | 143° |
| 2026-05-06 19:41 | 43.59722 | 0.71735 | 30930 ft | 477 kts | 143° |
| 2026-05-06 19:41 | 43.54584 | 0.77258 | 31004 ft | 459 kts | 144° |
| 2026-05-06 19:42 | 43.49586 | 0.82635 | 31006 ft | 454 kts | 144° |
| 2026-05-06 19:42 | 43.44596 | 0.87979 | 31007 ft | 454 kts | 144° |
| 2026-05-06 19:43 | 43.39621 | 0.93303 | 31012 ft | 453 kts | 144° |
| 2026-05-06 19:43 | 43.34639 | 0.98607 | 31003 ft | 453 kts | 144° |
| 2026-05-06 19:44 | 43.29662 | 1.03894 | 31004 ft | 452 kts | 145° |
| 2026-05-06 19:44 | 43.24693 | 1.09180 | 30931 ft | 450 kts | 145° |
| 2026-05-06 19:45 | 43.22242 | 1.11783 | 30679 ft | 443 kts | 145° |
| 2026-05-06 19:45 | 43.20632 | 1.13490 | 30515 ft | 440 kts | 145° |